Time;durP1;ratioP1;P1;durP2;ratioP2;P2;SDS_P1;SDS_P2;PMS_P1;PMS_P2;Temp;Humidity;BMP_temperature;BMP_pressure;BME280_temperature;BME280_humidity;BME280_pressure;Samples;Min_cycle;Max_cycle;Signal;HPM_P1;HPM_P2
2021/11/04 10:46:21;;;;;;;2.67;2.17;;;;;;;8.03;100.00;97650.44;5146602;27;20639;-83
2021/11/04 10:48:56;;;;;;;1.77;1.60;;;;;;;8.51;100.00;97651.38;5147844;27;38922;-82
2021/11/04 10:51:24;;;;;;;3.53;2.07;;;;;;;8.85;100.00;97649.69;5147422;27;42655;-81
2021/11/04 10:53:58;;;;;;;3.00;2.27;;;;;;;9.21;100.00;97651.38;5147504;27;42733;-86
2021/11/04 10:56:26;;;;;;;1.77;1.50;;;;;;;9.55;96.53;97666.31;5129242;27;41189;-84
2021/11/04 10:59:03;;;;;;;1.40;1.30;;;;;;;9.73;94.02;97664.91;5130731;27;38530;-87
2021/11/04 11:01:36;;;;;;;2.33;1.80;;;;;;;9.68;91.64;97624.75;5129150;27;40966;-85
2021/11/04 11:04:09;;;;;;;3.27;1.90;;;;;;;10.04;90.59;97671.25;5154272;27;42239;-83
2021/11/04 11:06:41;;;;;;;3.57;1.57;;;;;;;10.14;89.48;97675.81;5129735;27;40750;-83
2021/11/04 11:09:12;;;;;;;2.20;1.80;;;;;;;10.12;88.65;97665.38;5146306;27;39905;-84
2021/11/04 11:11:42;;;;;;;2.30;2.10;;;;;;;10.32;88.45;97677.84;5130287;27;40610;-83
2021/11/04 11:14:10;;;;;;;3.07;2.10;;;;;;;10.46;87.84;97678.56;5146585;27;43774;-80
2021/11/04 11:16:43;;;;;;;1.87;1.67;;;;;;;10.49;87.02;97679.16;5130067;27;41745;-81
2021/11/04 11:19:12;;;;;;;1.70;1.60;;;;;;;10.50;86.43;97683.50;5146707;27;38545;-84
2021/11/04 11:21:42;;;;;;;2.40;1.90;;;;;;;10.64;86.26;97692.94;5128797;27;42051;-83
2021/11/04 11:24:15;;;;;;;3.10;2.10;;;;;;;10.71;86.00;97699.44;5128943;27;42005;-81
2021/11/04 11:26:46;;;;;;;2.40;1.63;;;;;;;10.69;84.55;97696.06;5114357;27;41111;-80
2021/11/04 11:29:14;;;;;;;2.03;1.87;;;;;;;10.60;84.29;97680.94;5144301;27;39776;-83
2021/11/04 11:31:51;;;;;;;1.80;1.67;;;;;;;10.74;83.70;97709.78;5137085;27;41741;-82
2021/11/04 11:34:27;;;;;;;1.97;1.53;;;;;;;10.73;83.40;97710.75;5154298;27;41405;-81
2021/11/04 11:37:14;;;;;;;2.13;1.93;;;;;;;10.74;83.38;97715.91;5158491;27;40877;-81
2021/11/04 11:39:45;;;;;;;2.03;1.70;;;;;;;10.76;82.93;97713.13;5154579;27;40957;-81
2021/11/04 11:42:21;;;;;;;2.47;1.73;;;;;;;10.69;82.94;97706.66;5138681;27;40157;-83
2021/11/04 11:44:53;;;;;;;1.47;1.30;;;;;;;10.82;82.95;97722.38;5151938;27;41861;-81
2021/11/04 11:47:34;;;;;;;2.00;1.70;;;;;;;10.85;82.90;97722.97;5145737;27;41029;-82
2021/11/04 11:50:26;;;;;;;2.20;1.70;;;;;;;10.80;82.53;97731.28;5130354;27;39127;-85
2021/11/04 11:52:57;;;;;;;2.77;1.83;;;;;;;10.73;82.67;97723.97;5132482;27;41066;-82
2021/11/04 11:55:43;;;;;;;2.97;2.03;;;;;;;10.73;82.67;97731.94;5146029;27;43739;-82
2021/11/04 11:58:30;;;;;;;2.00;1.40;;;;;;;10.56;82.17;97714.75;5131245;27;42313;-81
2021/11/04 12:01:08;;;;;;;2.23;2.03;;;;;;;10.66;82.27;97749.25;5145732;27;40672;-81
2021/11/04 12:03:51;;;;;;;3.10;2.67;;;;;;;10.47;81.90;97733.19;5109868;27;41738;-86
2021/11/04 12:06:43;;;;;;;2.70;2.50;;;;;;;10.49;81.92;97757.72;5116518;27;41450;-84
2021/11/04 12:09:12;;;;;;;3.63;2.60;;;;;;;10.42;81.75;97758.19;5118780;27;41239;-83
2021/11/04 12:11:43;;;;;;;4.53;3.03;;;;;;;10.33;82.09;97769.50;5135328;27;40938;-81
2021/11/04 12:14:31;;;;;;;5.63;3.00;;;;;;;10.18;81.75;97752.19;5127261;27;42374;-86
2021/11/04 12:17:15;;;;;;;5.23;3.50;;;;;;;10.19;82.02;97774.19;5124011;27;43053;-82
2021/11/04 12:19:47;;;;;;;6.03;4.00;;;;;;;10.06;81.84;97772.47;5112288;27;42289;-85
2021/11/04 12:22:26;;;;;;;6.73;3.83;;;;;;;10.09;81.99;97788.13;5114045;27;39092;-82
2021/11/04 12:24:56;;;;;;;5.37;3.63;;;;;;;9.95;81.69;97775.13;5114448;27;40418;-84
2021/11/04 12:27:25;;;;;;;7.27;4.17;;;;;;;9.90;81.87;97781.69;5114262;27;41366;-83
2021/11/04 12:29:55;;;;;;;8.27;4.53;;;;;;;9.70;81.65;97786.72;5112927;27;41134;-81
2021/11/04 12:32:25;;;;;;;7.43;4.10;;;;;;;9.76;82.03;97785.44;5112185;27;38908;-83
2021/11/04 12:35:01;;;;;;;6.53;4.20;;;;;;;9.79;81.85;97805.47;5114724;27;40931;-81
2021/11/04 12:37:30;;;;;;;8.53;4.57;;;;;;;9.75;81.71;97820.75;5114631;27;42831;-81
2021/11/04 12:40:00;;;;;;;7.33;4.37;;;;;;;9.68;81.75;97824.81;5113869;27;41562;-82
2021/11/04 12:42:27;;;;;;;7.37;4.07;;;;;;;9.59;81.75;97820.22;5131563;27;39133;-84
2021/11/04 12:44:55;;;;;;;6.93;3.63;;;;;;;9.64;81.72;97829.47;5114116;27;40757;-82
2021/11/04 12:47:23;;;;;;;7.50;3.90;;;;;;;9.64;81.87;97834.75;5113897;27;41676;-85
2021/11/04 12:49:52;;;;;;;6.33;3.37;;;;;;;9.59;81.61;97842.22;5113478;27;42370;-82
2021/11/04 12:52:23;;;;;;;6.93;3.77;;;;;;;9.61;81.83;97836.81;5121126;27;40956;-81
2021/11/04 12:54:53;;;;;;;7.87;3.60;;;;;;;9.63;81.53;97842.81;5114261;27;40835;-82
2021/11/04 12:57:22;;;;;;;6.47;3.70;;;;;;;9.64;81.71;97849.81;5128863;27;43654;-80
2021/11/04 12:59:51;;;;;;;6.10;3.90;;;;;;;9.67;81.74;97850.41;5114066;27;41171;-87
2021/11/04 13:02:22;;;;;;;5.60;3.43;;;;;;;9.70;81.39;97855.47;5110929;27;38904;-83
2021/11/04 13:04:52;;;;;;;6.10;3.50;;;;;;;9.45;81.14;97825.69;5130916;27;41534;-86
2021/11/04 13:07:25;;;;;;;5.53;4.20;;;;;;;9.59;80.56;97844.84;5128957;27;43816;-86
2021/11/04 13:09:54;;;;;;;7.83;3.43;;;;;;;9.66;80.42;97874.28;5095811;27;41400;-83
2021/11/04 13:12:23;;;;;;;4.97;3.07;;;;;;;9.51;80.67;97843.75;5130561;27;39933;-84
2021/11/04 13:15:02;;;;;;;6.37;3.87;;;;;;;9.74;80.48;97879.88;5112861;27;41753;-82
2021/11/04 13:17:42;;;;;;;8.13;4.20;;;;;;;9.73;80.71;97884.31;5096191;27;41550;-81
2021/11/04 13:20:12;;;;;;;7.23;3.90;;;;;;;9.75;80.16;97891.28;5130574;27;43240;-83
2021/11/04 13:22:46;;;;;;;6.33;4.00;;;;;;;9.73;80.54;97892.25;5114888;27;40736;-80
2021/11/04 13:25:17;;;;;;;6.30;4.03;;;;;;;9.75;80.81;97893.94;5131887;27;41878;-83
2021/11/04 13:27:46;;;;;;;7.70;3.80;;;;;;;9.66;80.18;97890.16;5113189;27;41590;-84
2021/11/04 13:30:14;;;;;;;8.03;3.80;;;;;;;9.70;80.52;97887.19;5113014;27;41850;-83
2021/11/04 13:32:49;;;;;;;6.90;4.53;;;;;;;9.80;79.71;97902.34;5129944;27;39011;-85
2021/11/04 13:35:32;;;;;;;6.47;3.67;;;;;;;9.80;79.57;97907.63;5096195;27;40561;-84
2021/11/04 13:38:06;;;;;;;5.77;3.97;;;;;;;9.73;79.39;97913.41;5113914;27;41866;-85
2021/11/04 13:40:38;;;;;;;5.87;3.57;;;;;;;9.67;78.89;97907.72;5113025;27;42655;-82
2021/11/04 13:43:05;;;;;;;7.47;3.63;;;;;;;9.62;79.25;97902.78;5131244;27;40166;-82
2021/11/04 13:45:33;;;;;;;7.80;3.97;;;;;;;9.72;78.46;97922.28;5129580;27;41702;-84
2021/11/04 13:48:01;;;;;;;7.40;3.80;;;;;;;9.63;78.76;97912.41;5113915;27;41746;-83
2021/11/04 13:50:37;;;;;;;6.47;3.50;;;;;;;9.78;78.94;97930.69;5131462;27;42270;-82
2021/11/04 13:53:18;;;;;;;5.47;3.33;;;;;;;9.83;78.21;97939.16;5131005;27;40890;-84
2021/11/04 13:55:48;;;;;;;7.27;4.20;;;;;;;9.65;78.32;97910.47;5113310;27;40602;-83
2021/11/04 13:58:16;;;;;;;5.73;3.50;;;;;;;9.86;78.12;97952.16;5129907;27;42670;-83
2021/11/04 14:00:44;;;;;;;8.77;4.33;;;;;;;9.90;78.23;97956.22;5131642;27;42959;-80
2021/11/04 14:03:14;;;;;;;7.47;4.20;;;;;;;9.93;78.09;97948.94;5130953;27;39857;-84
2021/11/04 14:05:57;;;;;;;7.73;4.10;;;;;;;9.99;78.43;97947.63;5129824;27;41062;-83
2021/11/04 14:08:41;;;;;;;7.63;4.30;;;;;;;10.07;78.38;97963.78;5129957;27;43219;-83
2021/11/04 14:11:17;;;;;;;7.20;3.60;;;;;;;10.02;77.90;97973.84;5130760;27;42221;-82
2021/11/04 14:13:50;;;;;;;7.83;3.63;;;;;;;9.91;77.38;97979.94;5129945;27;40039;-83
2021/11/04 14:16:27;;;;;;;5.27;4.23;;;;;;;9.75;78.04;97968.81;5130603;27;40677;-83
2021/11/04 14:18:58;;;;;;;6.40;4.03;;;;;;;9.77;77.97;97981.91;5112213;27;42936;-84
2021/11/04 14:21:27;;;;;;;7.80;4.97;;;;;;;9.68;78.29;97986.06;5131334;27;42341;-83
2021/11/04 14:24:01;;;;;;;5.33;3.93;;;;;;;9.49;78.39;97975.16;5113257;27;39846;-81
2021/11/04 14:26:34;;;;;;;7.67;4.17;;;;;;;9.55;78.70;97998.47;5113250;27;41108;-83
2021/11/04 14:29:03;;;;;;;6.97;4.23;;;;;;;9.45;78.15;98000.94;5131295;27;42757;-80
2021/11/04 14:31:31;;;;;;;6.57;3.67;;;;;;;9.42;78.57;98009.06;5131196;27;42219;-81
2021/11/04 14:33:58;;;;;;;8.57;4.50;;;;;;;9.36;78.14;98004.25;5130667;27;39614;-83
2021/11/04 14:36:28;;;;;;;7.90;3.80;;;;;;;9.24;78.25;97997.19;5112698;27;40304;-84
2021/11/04 14:38:56;;;;;;;6.90;3.63;;;;;;;9.18;78.20;97984.41;5130473;27;41591;-83
2021/11/04 14:41:25;;;;;;;5.43;3.70;;;;;;;9.28;78.50;98022.41;5112699;27;41104;-83
2021/11/04 14:43:53;;;;;;;6.47;4.13;;;;;;;9.20;78.26;98025.59;5113400;27;38937;-84
2021/11/04 14:46:21;;;;;;;7.27;4.07;;;;;;;9.21;78.37;98031.75;5112126;27;40372;-83
2021/11/04 14:48:48;;;;;;;7.23;3.80;;;;;;;9.20;78.69;98032.69;5112982;27;42012;-81
2021/11/04 14:51:18;;;;;;;6.23;4.43;;;;;;;9.18;79.01;98035.44;5129163;27;41401;-83
2021/11/04 14:53:46;;;;;;;7.23;3.63;;;;;;;9.16;78.40;98039.13;5130229;27;38969;-81
2021/11/04 14:56:13;;;;;;;5.77;4.30;;;;;;;9.05;78.83;98024.03;5131383;27;41544;-83
2021/11/04 14:58:42;;;;;;;5.63;3.37;;;;;;;9.12;78.57;98043.81;5118983;27;42684;-82
2021/11/04 15:01:10;;;;;;;4.77;2.97;;;;;;;8.99;77.96;98033.25;5129797;27;42243;-83
2021/11/04 15:03:38;;;;;;;4.37;3.23;;;;;;;9.10;78.47;98050.13;5129609;27;39988;-82
2021/11/04 15:06:05;;;;;;;6.90;3.93;;;;;;;9.11;78.36;98057.97;5112965;27;42028;-83
2021/11/04 15:08:33;;;;;;;5.80;3.40;;;;;;;9.08;78.59;98054.66;5101502;27;42067;-82
2021/11/04 15:11:01;;;;;;;8.67;3.93;;;;;;;9.09;78.40;98057.22;5112097;27;41150;-82
2021/11/04 15:13:28;;;;;;;5.77;2.70;;;;;;;9.12;78.68;98064.09;5112409;27;38928;-81
2021/11/04 15:15:59;;;;;;;4.13;3.00;;;;;;;9.04;78.95;98050.53;5129031;27;41031;-84
